Time;durP1;ratioP1;P1;durP2;ratioP2;P2;SDS_P1;SDS_P2;PMS_P1;PMS_P2;Temp;Humidity;BMP_temperature;BMP_pressure;BME280_temperature;BME280_humidity;BME280_pressure;Samples;Min_cycle;Max_cycle;Signal;HPM_P1;HPM_P2
2021/01/19 00:00:14;;;;;;;27.58;19.73;;;;;;;;;;1040473;28;20045;-90
2021/01/19 00:00:45;;;;;;;31.83;21.45;;;;;;;;;;1032410;28;20495;-92
2021/01/19 00:01:16;;;;;;;33.15;20.17;;;;;;;;;;1044407;28;20057;-90
2021/01/19 00:01:48;;;;;;;29.55;19.73;;;;;;;;;;1041257;28;20440;-93
2021/01/19 00:02:19;;;;;;;33.47;23.70;;;;;;;;;;1044753;28;20132;-93
2021/01/19 00:02:50;;;;;;;35.92;24.33;;;;;;;;;;1044556;28;20053;-92
2021/01/19 00:03:21;;;;;;;44.05;25.02;;;;;;;;;;1044605;28;20049;-92
2021/01/19 00:03:52;;;;;;;31.55;21.80;;;;;;;;;;1036419;28;20497;-91
2021/01/19 00:04:24;;;;;;;31.13;22.75;;;;;;;;;;1044975;28;20045;-91
2021/01/19 00:04:55;;;;;;;37.00;22.35;;;;;;;;;;1048938;28;20049;-92
2021/01/19 00:05:26;;;;;;;28.80;20.95;;;;;;;;;;1045671;28;20048;-92
2021/01/19 00:06:00;;;;;;;28.08;20.70;;;;;;;;;;1032441;28;20046;-92
2021/01/19 00:06:31;;;;;;;29.05;20.65;;;;;;;;;;1040278;28;20061;-89
2021/01/19 00:07:03;;;;;;;25.33;20.35;;;;;;;;;;1038440;28;20049;-92
2021/01/19 00:07:34;;;;;;;36.33;23.77;;;;;;;;;;1041336;28;20054;-92
2021/01/19 00:08:07;;;;;;;25.13;18.63;;;;;;;;;;1048616;28;20076;-92
2021/01/19 00:08:38;;;;;;;30.02;22.23;;;;;;;;;;1047882;28;20088;-92
2021/01/19 00:09:10;;;;;;;31.48;19.60;;;;;;;;;;1032285;28;20050;-92
2021/01/19 00:09:41;;;;;;;31.70;19.75;;;;;;;;;;1041253;28;20157;-92
2021/01/19 00:10:12;;;;;;;28.95;20.17;;;;;;;;;;1040440;28;20056;-93
2021/01/19 00:10:44;;;;;;;26.80;19.58;;;;;;;;;;1041042;28;20113;-93
2021/01/19 00:11:16;;;;;;;31.73;20.80;;;;;;;;;;1032573;28;20061;-95
2021/01/19 00:11:50;;;;;;;31.05;19.88;;;;;;;;;;1029185;28;20051;-93
2021/01/19 00:12:21;;;;;;;30.83;18.02;;;;;;;;;;1028940;28;20058;-92
2021/01/19 00:12:54;;;;;;;27.08;17.73;;;;;;;;;;1040274;28;20053;-92
2021/01/19 00:13:26;;;;;;;24.63;16.80;;;;;;;;;;1040585;28;20050;-92
2021/01/19 00:13:57;;;;;;;31.30;18.70;;;;;;;;;;1040357;28;20053;-91
2021/01/19 00:14:28;;;;;;;26.00;18.35;;;;;;;;;;1036562;28;20100;-94
2021/01/19 00:15:00;;;;;;;21.25;15.45;;;;;;;;;;1037444;28;20050;-93
2021/01/19 00:15:31;;;;;;;25.33;16.50;;;;;;;;;;1032174;28;20061;-91
2021/01/19 00:16:02;;;;;;;27.40;16.33;;;;;;;;;;1036428;28;20490;-93
2021/01/19 00:16:33;;;;;;;27.13;17.40;;;;;;;;;;1040313;28;20077;-92
2021/01/19 00:17:04;;;;;;;24.08;16.10;;;;;;;;;;1036341;28;20181;-92
2021/01/19 00:17:35;;;;;;;22.70;16.20;;;;;;;;;;1034706;28;20141;-90
2021/01/19 00:18:08;;;;;;;28.52;17.67;;;;;;;;;;1032338;28;20054;-93
2021/01/19 00:18:40;;;;;;;30.77;18.30;;;;;;;;;;1036420;28;20050;-92
2021/01/19 00:19:11;;;;;;;32.10;18.75;;;;;;;;;;1040532;28;20111;-93
2021/01/19 00:19:42;;;;;;;22.90;17.98;;;;;;;;;;1040723;28;20061;-93
2021/01/19 00:20:13;;;;;;;25.38;17.50;;;;;;;;;;1036994;28;20049;-91
2021/01/19 00:20:45;;;;;;;27.73;17.40;;;;;;;;;;1036688;28;20530;-92
2021/01/19 00:21:16;;;;;;;27.02;17.45;;;;;;;;;;1044416;28;20053;-92
2021/01/19 00:21:47;;;;;;;25.45;16.77;;;;;;;;;;1040364;28;20547;-91
2021/01/19 00:22:18;;;;;;;26.80;16.02;;;;;;;;;;1044581;28;20052;-93
2021/01/19 00:22:49;;;;;;;27.90;17.45;;;;;;;;;;1037124;28;20100;-93
2021/01/19 00:23:20;;;;;;;26.38;15.90;;;;;;;;;;1032260;28;20046;-92
2021/01/19 00:23:51;;;;;;;21.98;15.98;;;;;;;;;;1032396;28;20056;-90
2021/01/19 00:24:25;;;;;;;21.55;13.40;;;;;;;;;;1036296;28;20141;-91
2021/01/19 00:25:00;;;;;;;22.05;14.52;;;;;;;;;;1040687;28;20050;-91
2021/01/19 00:25:32;;;;;;;22.95;15.07;;;;;;;;;;1039136;28;20045;-91
2021/01/19 00:26:05;;;;;;;25.60;14.95;;;;;;;;;;1032351;28;20050;-92
2021/01/19 00:26:38;;;;;;;24.70;15.00;;;;;;;;;;1028233;28;20065;-92
2021/01/19 00:27:10;;;;;;;27.35;15.13;;;;;;;;;;1032202;28;20129;-92
2021/01/19 00:27:41;;;;;;;24.38;14.73;;;;;;;;;;1040709;28;20171;-92
2021/01/19 00:28:13;;;;;;;22.98;13.40;;;;;;;;;;1040278;28;20220;-92
2021/01/19 00:28:45;;;;;;;29.70;15.52;;;;;;;;;;1039711;28;20057;-94
2021/01/19 00:29:16;;;;;;;25.23;13.80;;;;;;;;;;1032767;28;20065;-92
2021/01/19 00:29:47;;;;;;;25.38;13.90;;;;;;;;;;1036333;28;20394;-91
2021/01/19 00:30:18;;;;;;;24.45;12.55;;;;;;;;;;1040860;28;20052;-92
2021/01/19 00:30:49;;;;;;;21.38;12.80;;;;;;;;;;1041859;28;20049;-91
2021/01/19 00:31:21;;;;;;;22.33;12.80;;;;;;;;;;1040146;28;20123;-91
2021/01/19 00:31:54;;;;;;;21.27;12.77;;;;;;;;;;1032407;28;20133;-94
2021/01/19 00:32:25;;;;;;;24.98;14.38;;;;;;;;;;1036299;28;20135;-91
2021/01/19 00:32:56;;;;;;;17.20;9.07;;;;;;;;;;1040832;28;20096;-93
2021/01/19 00:33:27;;;;;;;26.83;11.10;;;;;;;;;;1044500;28;20056;-91
2021/01/19 00:33:59;;;;;;;16.83;12.40;;;;;;;;;;1037290;28;20096;-93
2021/01/19 00:34:30;;;;;;;23.15;12.23;;;;;;;;;;1032158;28;20139;-90
2021/01/19 00:35:01;;;;;;;20.83;11.85;;;;;;;;;;1044596;28;20056;-91
2021/01/19 00:35:33;;;;;;;24.55;12.48;;;;;;;;;;1048916;28;20048;-91
2021/01/19 00:36:06;;;;;;;16.50;10.15;;;;;;;;;;1044260;28;20052;-92
2021/01/19 00:36:37;;;;;;;20.48;11.80;;;;;;;;;;1032116;28;20081;-93
2021/01/19 00:37:08;;;;;;;17.48;12.32;;;;;;;;;;1036366;28;20049;-93
2021/01/19 00:37:39;;;;;;;20.00;11.50;;;;;;;;;;1036303;28;20049;-93
2021/01/19 00:38:10;;;;;;;17.15;10.32;;;;;;;;;;1037157;28;20084;-91
2021/01/19 00:38:42;;;;;;;23.25;9.73;;;;;;;;;;1035940;28;20053;-92
2021/01/19 00:39:13;;;;;;;20.58;10.40;;;;;;;;;;1040816;28;20049;-92
2021/01/19 00:39:44;;;;;;;20.05;10.25;;;;;;;;;;1040506;28;20139;-92
2021/01/19 00:40:15;;;;;;;20.08;10.35;;;;;;;;;;1040913;28;20536;-91
2021/01/19 00:40:47;;;;;;;26.50;11.38;;;;;;;;;;1037022;28;20053;-91
2021/01/19 00:41:18;;;;;;;17.42;11.18;;;;;;;;;;1036327;28;20143;-92
2021/01/19 00:41:49;;;;;;;21.45;10.13;;;;;;;;;;1036344;28;20061;-88
2021/01/19 00:42:20;;;;;;;19.67;10.18;;;;;;;;;;1036355;28;20124;-91
2021/01/19 00:42:51;;;;;;;19.10;10.32;;;;;;;;;;1034636;28;20501;-91
2021/01/19 00:43:22;;;;;;;19.60;10.43;;;;;;;;;;1032529;28;20072;-93
2021/01/19 00:43:53;;;;;;;19.55;9.57;;;;;;;;;;1036400;28;20057;-92
2021/01/19 00:44:24;;;;;;;17.83;9.85;;;;;;;;;;1036229;28;20540;-92
2021/01/19 00:44:55;;;;;;;22.10;10.60;;;;;;;;;;1036189;28;20046;-92
2021/01/19 00:45:27;;;;;;;27.38;11.88;;;;;;;;;;1036284;28;20050;-92
2021/01/19 00:45:58;;;;;;;16.80;10.50;;;;;;;;;;1033083;28;20050;-91
2021/01/19 00:46:29;;;;;;;22.85;9.50;;;;;;;;;;1036698;28;20046;-92
2021/01/19 00:47:01;;;;;;;16.17;10.10;;;;;;;;;;1044178;28;20053;-92
2021/01/19 00:47:32;;;;;;;27.23;12.85;;;;;;;;;;1044550;28;20065;-93
2021/01/19 00:48:03;;;;;;;22.05;11.15;;;;;;;;;;1040844;28;20045;-91
2021/01/19 00:48:34;;;;;;;19.33;10.82;;;;;;;;;;1044666;28;20070;-92
2021/01/19 00:49:05;;;;;;;20.90;10.65;;;;;;;;;;1036267;28;20078;-92
2021/01/19 00:49:36;;;;;;;20.48;10.38;;;;;;;;;;1028146;28;20046;-91
2021/01/19 00:50:08;;;;;;;22.88;9.70;;;;;;;;;;1034694;28;20133;-93
2021/01/19 00:50:39;;;;;;;19.33;10.27;;;;;;;;;;1044575;28;20049;-91
2021/01/19 00:51:11;;;;;;;14.95;10.43;;;;;;;;;;1040659;28;20140;-91
2021/01/19 00:51:42;;;;;;;13.85;8.75;;;;;;;;;;1036240;28;20218;-92
2021/01/19 00:52:13;;;;;;;20.52;9.98;;;;;;;;;;1032295;28;20062;-92
2021/01/19 00:52:44;;;;;;;18.73;9.70;;;;;;;;;;1032217;28;20050;-92
2021/01/19 00:53:15;;;;;;;18.90;9.80;;;;;;;;;;1040129;28;20127;-92
2021/01/19 00:53:46;;;;;;;24.83;10.68;;;;;;;;;;1036785;28;20049;-92
2021/01/19 00:54:18;;;;;;;15.65;9.55;;;;;;;;;;1040435;28;20046;-95
2021/01/19 00:54:52;;;;;;;19.25;10.25;;;;;;;;;;1032092;28;20050;-93
2021/01/19 00:55:23;;;;;;;19.45;10.23;;;;;;;;;;1032098;28;20046;-92
2021/01/19 00:55:54;;;;;;;22.17;10.15;;;;;;;;;;1040291;28;20136;-91
2021/01/19 00:56:34;;;;;;;17.70;10.00;;;;;;;;;;1040259;28;20049;-91
2021/01/19 00:57:05;;;;;;;21.63;8.75;;;;;;;;;;1048596;28;20145;-91
2021/01/19 00:57:37;;;;;;;27.90;9.75;;;;;;;;;;1038970;28;20140;-91
2021/01/19 00:58:08;;;;;;;17.83;8.98;;;;;;;;;;1037994;28;20407;-90
2021/01/19 00:58:39;;;;;;;18.08;9.40;;;;;;;;;;1041018;28;20046;-92
2021/01/19 00:59:10;;;;;;;20.25;9.13;;;;;;;;;;1036188;28;20507;-91
2021/01/19 00:59:43;;;;;;;26.75;9.80;;;;;;;;;;1034303;28;20054;-91
2021/01/19 01:00:16;;;;;;;17.23;9.35;;;;;;;;;;1034201;28;20131;-92
2021/01/19 01:00:47;;;;;;;14.93;8.95;;;;;;;;;;1032387;28;20097;-92
2021/01/19 01:01:19;;;;;;;21.50;10.65;;;;;;;;;;1038876;28;20049;-91
2021/01/19 01:01:51;;;;;;;18.75;8.75;;;;;;;;;;1040372;28;20401;-90
2021/01/19 01:02:22;;;;;;;24.20;8.00;;;;;;;;;;1044296;28;20049;-91
2021/01/19 01:02:53;;;;;;;17.05;8.23;;;;;;;;;;1038004;28;20579;-91
2021/01/19 01:03:25;;;;;;;12.57;8.35;;;;;;;;;;1048548;28;20485;-90
2021/01/19 01:03:56;;;;;;;13.80;8.73;;;;;;;;;;1040837;28;20050;-91
2021/01/19 01:04:27;;;;;;;13.23;8.40;;;;;;;;;;1044207;28;20506;-92
2021/01/19 01:04:58;;;;;;;18.05;8.85;;;;;;;;;;1040430;28;20046;-90
2021/01/19 01:05:29;;;;;;;21.38;10.07;;;;;;;;;;1043857;28;20116;-91
2021/01/19 01:06:01;;;;;;;21.20;9.63;;;;;;;;;;1033656;28;20050;-92
2021/01/19 01:06:32;;;;;;;16.73;7.97;;;;;;;;;;1040614;28;20515;-90
2021/01/19 01:07:04;;;;;;;17.67;9.30;;;;;;;;;;1036145;28;20050;-91
2021/01/19 01:07:41;;;;;;;16.33;8.40;;;;;;;;;;1040394;28;20398;-91
2021/01/19 01:08:12;;;;;;;17.38;9.30;;;;;;;;;;1041523;28;20117;-91
2021/01/19 01:08:43;;;;;;;19.10;8.07;;;;;;;;;;1038960;28;20077;-91
2021/01/19 01:09:14;;;;;;;16.67;8.50;;;;;;;;;;1032736;28;20050;-91
2021/01/19 01:09:45;;;;;;;20.05;9.98;;;;;;;;;;1032203;28;20050;-92
2021/01/19 01:10:17;;;;;;;20.52;9.55;;;;;;;;;;1039723;28;20049;-91
2021/01/19 01:10:49;;;;;;;21.20;9.23;;;;;;;;;;1036238;28;20564;-92
2021/01/19 01:11:20;;;;;;;18.10;9.82;;;;;;;;;;1036245;28;20101;-93
2021/01/19 01:11:51;;;;;;;24.70;10.05;;;;;;;;;;1028664;28;20046;-93
2021/01/19 01:12:22;;;;;;;20.15;8.50;;;;;;;;;;1031613;28;20547;-92
2021/01/19 01:12:54;;;;;;;13.48;7.85;;;;;;;;;;1035952;28;20197;-91
2021/01/19 01:13:25;;;;;;;18.00;9.95;;;;;;;;;;1040356;28;20422;-91
2021/01/19 01:13:56;;;;;;;12.50;7.63;;;;;;;;;;1036528;28;20053;-92
2021/01/19 01:14:27;;;;;;;18.65;7.75;;;;;;;;;;1040477;28;20046;-89
2021/01/19 01:14:58;;;;;;;19.45;9.02;;;;;;;;;;1040243;28;20045;-92
2021/01/19 01:15:37;;;;;;;11.23;7.13;;;;;;;;;;1040457;28;20088;-89
2021/01/19 01:16:10;;;;;;;12.57;6.78;;;;;;;;;;1036055;28;20049;-90
2021/01/19 01:16:41;;;;;;;13.35;6.72;;;;;;;;;;1049038;28;20572;-91
2021/01/19 01:17:12;;;;;;;14.07;6.85;;;;;;;;;;1044349;28;20056;-91
2021/01/19 01:17:43;;;;;;;19.17;7.47;;;;;;;;;;1045089;28;20470;-89
2021/01/19 01:18:15;;;;;;;10.73;7.72;;;;;;;;;;1041145;28;20124;-92
2021/01/19 01:18:47;;;;;;;26.02;7.47;;;;;;;;;;1037357;28;20478;-91
2021/01/19 01:19:18;;;;;;;13.40;7.15;;;;;;;;;;1045556;28;20053;-91
2021/01/19 01:19:49;;;;;;;12.65;6.15;;;;;;;;;;1037263;28;20135;-89
2021/01/19 01:20:20;;;;;;;17.38;7.95;;;;;;;;;;1041138;28;20575;-90
2021/01/19 01:20:52;;;;;;;9.88;6.00;;;;;;;;;;1029404;28;20105;-90
2021/01/19 01:21:23;;;;;;;13.25;6.05;;;;;;;;;;1033522;28;20098;-90
2021/01/19 01:21:54;;;;;;;19.63;7.68;;;;;;;;;;1041668;28;20052;-90
2021/01/19 01:22:26;;;;;;;19.38;7.57;;;;;;;;;;1043500;28;20045;-92
2021/01/19 01:22:57;;;;;;;14.43;7.18;;;;;;;;;;1040619;28;20081;-90
2021/01/19 01:23:28;;;;;;;12.05;6.45;;;;;;;;;;1039270;28;20069;-92
2021/01/19 01:23:59;;;;;;;10.98;6.13;;;;;;;;;;1047985;28;20048;-91
2021/01/19 01:24:30;;;;;;;13.85;6.85;;;;;;;;;;1042028;28;20045;-89
2021/01/19 01:25:01;;;;;;;13.00;5.85;;;;;;;;;;1049644;28;20055;-92
2021/01/19 01:25:33;;;;;;;14.85;7.25;;;;;;;;;;1049470;28;20055;-92
2021/01/19 01:26:04;;;;;;;11.02;6.28;;;;;;;;;;1049446;28;20048;-91
2021/01/19 01:26:36;;;;;;;16.05;6.38;;;;;;;;;;1049514;28;20044;-93
2021/01/19 01:27:07;;;;;;;16.17;6.95;;;;;;;;;;1042263;28;20138;-90
2021/01/19 01:27:40;;;;;;;12.38;6.07;;;;;;;;;;1044776;28;20041;-93
2021/01/19 01:28:11;;;;;;;17.67;6.22;;;;;;;;;;1041116;28;20053;-90
2021/01/19 01:28:42;;;;;;;13.07;6.70;;;;;;;;;;1040618;28;20057;-90
2021/01/19 01:29:14;;;;;;;7.22;5.25;;;;;;;;;;1041194;28;20136;-89
2021/01/19 01:29:45;;;;;;;18.80;7.10;;;;;;;;;;1045472;28;20049;-90
2021/01/19 01:30:17;;;;;;;12.55;6.97;;;;;;;;;;1045309;28;20187;-89
2021/01/19 01:30:48;;;;;;;14.90;6.07;;;;;;;;;;1038935;28;20045;-90
2021/01/19 01:31:20;;;;;;;13.43;5.85;;;;;;;;;;1036982;28;20046;-91
2021/01/19 01:31:51;;;;;;;11.13;5.45;;;;;;;;;;1037107;28;20050;-92
2021/01/19 01:32:22;;;;;;;9.65;5.60;;;;;;;;;;1042442;28;20125;-92
2021/01/19 01:32:55;;;;;;;21.20;7.57;;;;;;;;;;1037134;28;20131;-92
2021/01/19 01:33:27;;;;;;;16.45;6.85;;;;;;;;;;1047552;28;20468;-90
2021/01/19 01:33:58;;;;;;;13.90;5.80;;;;;;;;;;1041244;28;20045;-91
2021/01/19 01:34:30;;;;;;;12.15;5.97;;;;;;;;;;1036962;28;20081;-91
2021/01/19 01:35:02;;;;;;;11.55;6.38;;;;;;;;;;1033589;28;20050;-92
2021/01/19 01:35:34;;;;;;;11.95;5.68;;;;;;;;;;1040957;28;20049;-89
2021/01/19 01:36:09;;;;;;;8.25;5.60;;;;;;;;;;1046293;28;20049;-91
2021/01/19 01:36:40;;;;;;;11.98;5.85;;;;;;;;;;1050405;28;20049;-91
2021/01/19 01:37:11;;;;;;;17.77;6.10;;;;;;;;;;1044082;28;20150;-88
2021/01/19 01:37:47;;;;;;;10.43;5.45;;;;;;;;;;1041092;28;20077;-92
2021/01/19 01:38:18;;;;;;;11.50;5.82;;;;;;;;;;1041046;28;20046;-86
2021/01/19 01:38:50;;;;;;;16.10;7.00;;;;;;;;;;1045092;28;20053;-91
2021/01/19 01:39:21;;;;;;;16.05;5.57;;;;;;;;;;1045020;28;20128;-91
2021/01/19 01:39:52;;;;;;;15.30;5.53;;;;;;;;;;1041256;28;20092;-89
2021/01/19 01:40:25;;;;;;;17.75;5.75;;;;;;;;;;1036439;28;20061;-88
2021/01/19 01:40:56;;;;;;;15.40;6.22;;;;;;;;;;1045270;28;20051;-93
2021/01/19 01:41:27;;;;;;;15.05;5.90;;;;;;;;;;1045308;28;20465;-92
2021/01/19 01:41:58;;;;;;;13.15;6.15;;;;;;;;;;1038426;28;20188;-92
2021/01/19 01:42:30;;;;;;;13.80;6.55;;;;;;;;;;1045821;28;20115;-92
2021/01/19 01:43:13;;;;;;;14.50;6.97;;;;;;;;;;1045183;28;20045;-91
2021/01/19 01:43:45;;;;;;;10.98;6.03;;;;;;;;;;1049313;28;20045;-90
2021/01/19 01:44:16;;;;;;;15.75;6.32;;;;;;;;;;1042682;28;20052;-91
2021/01/19 01:44:48;;;;;;;13.20;6.07;;;;;;;;;;1045146;28;20414;-91
2021/01/19 01:45:21;;;;;;;15.05;6.20;;;;;;;;;;1046225;28;20210;-92
2021/01/19 01:45:52;;;;;;;9.63;5.00;;;;;;;;;;1048528;28;20094;-90
2021/01/19 01:46:26;;;;;;;9.88;5.40;;;;;;;;;;1044366;28;20131;-92
2021/01/19 01:46:57;;;;;;;14.45;5.63;;;;;;;;;;1045172;28;20108;-92
2021/01/19 01:47:29;;;;;;;14.65;5.05;;;;;;;;;;1037988;28;20085;-92
2021/01/19 01:48:00;;;;;;;14.02;5.57;;;;;;;;;;1038285;28;20133;-90
2021/01/19 01:48:31;;;;;;;14.73;5.85;;;;;;;;;;1032778;28;20124;-91
2021/01/19 01:49:03;;;;;;;13.45;5.28;;;;;;;;;;1036884;28;20046;-91
2021/01/19 01:49:34;;;;;;;14.15;5.68;;;;;;;;;;1037445;28;20188;-93
2021/01/19 01:50:08;;;;;;;11.20;5.55;;;;;;;;;;1037048;28;20081;-89
2021/01/19 01:50:40;;;;;;;14.13;5.82;;;;;;;;;;1045738;28;20195;-91
2021/01/19 01:51:12;;;;;;;16.45;5.47;;;;;;;;;;1045196;28;20159;-91
2021/01/19 01:51:44;;;;;;;20.90;5.97;;;;;;;;;;1036970;28;20053;-90
2021/01/19 01:52:21;;;;;;;12.38;6.97;;;;;;;;;;1036818;28;20045;-92
2021/01/19 01:52:52;;;;;;;13.82;6.32;;;;;;;;;;1038087;28;20060;-91
2021/01/19 01:53:23;;;;;;;14.93;5.95;;;;;;;;;;1040867;28;20069;-92
2021/01/19 01:53:56;;;;;;;17.67;6.00;;;;;;;;;;1039472;28;20057;-90
2021/01/19 01:54:30;;;;;;;15.30;5.80;;;;;;;;;;1040992;28;20397;-91
2021/01/19 01:55:02;;;;;;;14.02;5.72;;;;;;;;;;1032669;28;20046;-92
2021/01/19 01:55:36;;;;;;;12.98;5.13;;;;;;;;;;1030954;28;20050;-91
2021/01/19 01:56:08;;;;;;;10.70;5.38;;;;;;;;;;1032959;28;20487;-91
2021/01/19 01:56:40;;;;;;;16.02;4.88;;;;;;;;;;1036896;28;20475;-88
2021/01/19 01:57:11;;;;;;;12.95;5.28;;;;;;;;;;1038523;28;20140;-90
2021/01/19 01:57:42;;;;;;;13.38;5.53;;;;;;;;;;1032922;28;20133;-91
2021/01/19 01:58:14;;;;;;;16.65;5.80;;;;;;;;;;1041117;28;20136;-90
2021/01/19 01:58:46;;;;;;;12.18;5.18;;;;;;;;;;1037436;28;20068;-89
2021/01/19 01:59:17;;;;;;;11.13;5.78;;;;;;;;;;1037637;28;20481;-91
2021/01/19 01:59:49;;;;;;;10.95;4.43;;;;;;;;;;1035991;28;20137;-88
2021/01/19 02:00:21;;;;;;;9.45;5.22;;;;;;;;;;1036935;28;20077;-89
2021/01/19 02:00:53;;;;;;;19.80;6.43;;;;;;;;;;1037311;28;20049;-91
2021/01/19 02:01:24;;;;;;;11.35;5.53;;;;;;;;;;1036950;28;20516;-90
2021/01/19 02:02:09;;;;;;;8.90;4.72;;;;;;;;;;1033501;28;20046;-90
2021/01/19 02:02:54;;;;;;;10.98;5.75;;;;;;;;;;1035246;28;20049;-91
2021/01/19 02:03:25;;;;;;;15.90;5.40;;;;;;;;;;1037928;28;20050;-90
2021/01/19 02:03:56;;;;;;;12.25;5.07;;;;;;;;;;1041049;28;20077;-91
2021/01/19 02:04:27;;;;;;;15.77;5.63;;;;;;;;;;1045082;28;20632;-92
2021/01/19 02:04:59;;;;;;;21.10;7.13;;;;;;;;;;1040847;28;20494;-91
2021/01/19 02:05:30;;;;;;;10.80;5.00;;;;;;;;;;1036879;28;20045;-91
2021/01/19 02:06:02;;;;;;;16.15;5.72;;;;;;;;;;1037382;28;20490;-90
2021/01/19 02:06:33;;;;;;;14.75;5.80;;;;;;;;;;1036995;28;20140;-92
2021/01/19 02:07:27;;;;;;;9.73;5.15;;;;;;;;;;1040829;28;20080;-92
2021/01/19 02:08:01;;;;;;;12.18;4.75;;;;;;;;;;1029220;28;20098;-91
2021/01/19 02:08:46;;;;;;;16.38;5.45;;;;;;;;;;1041031;28;20199;-90
2021/01/19 02:09:21;;;;;;;8.15;4.68;;;;;;;;;;1055218;28;20404;-92
2021/01/19 02:10:02;;;;;;;11.32;5.07;;;;;;;;;;1050021;28;20055;-92
2021/01/19 02:11:04;;;;;;;12.68;4.97;;;;;;;;;;1040897;28;20080;-92
2021/01/19 02:11:48;;;;;;;9.52;4.43;;;;;;;;;;1042518;28;20045;-91
2021/01/19 02:12:26;;;;;;;17.15;5.28;;;;;;;;;;1043016;28;20049;-91
2021/01/19 02:13:27;;;;;;;11.18;4.50;;;;;;;;;;1040923;28;20054;-94
2021/01/19 02:14:17;;;;;;;;;;;;;;;;;;1043513;28;20049;-92
2021/01/19 02:15:00;;;;;;;9.77;4.13;;;;;;;;;;1052252;28;19920;-91
2021/01/19 02:15:40;;;;;;;13.63;4.72;;;;;;;;;;1048839;28;20071;-92
2021/01/19 02:16:29;;;;;;;11.30;4.55;;;;;;;;;;1040594;28;20049;-90
2021/01/19 02:17:09;;;;;;;15.85;5.22;;;;;;;;;;1045021;28;20460;-91
2021/01/19 02:18:09;;;;;;;15.75;5.28;;;;;;;;;;1049025;28;20532;-91
2021/01/19 02:18:53;;;;;;;16.88;4.70;;;;;;;;;;1048057;28;20048;-92
2021/01/19 02:19:51;;;;;;;15.75;4.85;;;;;;;;;;1049210;28;20109;-92
2021/01/19 02:20:45;;;;;;;14.55;5.75;;;;;;;;;;1050420;28;20123;-91
2021/01/19 02:21:35;;;;;;;17.42;5.90;;;;;;;;;;1041664;28;20051;-92
2021/01/19 02:22:43;;;;;;;11.23;3.85;;;;;;;;;;1046418;28;20135;-91
2021/01/19 02:23:29;;;;;;;10.95;4.18;;;;;;;;;;1052972;28;20089;-91
2021/01/19 02:24:11;;;;;;;16.48;5.30;;;;;;;;;;1048467;28;20048;-90
2021/01/19 02:25:04;;;;;;;15.63;5.68;;;;;;;;;;1040860;28;20049;-91
2021/01/19 02:25:53;;;;;;;10.13;4.13;;;;;;;;;;1045537;28;20049;-90
2021/01/19 02:26:52;;;;;;;17.15;4.57;;;;;;;;;;1048815;28;20045;-87
2021/01/19 02:27:38;;;;;;;11.45;3.70;;;;;;;;;;1050988;28;20572;-90
2021/01/19 02:28:30;;;;;;;12.52;5.60;;;;;;;;;;1049184;28;20083;-90
2021/01/19 02:29:27;;;;;;;12.05;4.50;;;;;;;;;;1047536;28;20087;-92
2021/01/19 02:30:07;;;;;;;7.18;4.32;;;;;;;;;;1038474;28;20052;-91
2021/01/19 02:30:49;;;;;;;13.07;4.70;;;;;;;;;;1041740;28;20103;-89
2021/01/19 02:31:45;;;;;;;8.10;4.43;;;;;;;;;;1045017;28;20052;-89
2021/01/19 02:32:21;;;;;;;8.82;3.85;;;;;;;;;;1052164;28;20044;-89
2021/01/19 02:33:03;;;;;;;9.32;3.65;;;;;;;;;;1048986;28;20129;-89
2021/01/19 02:34:02;;;;;;;14.70;4.85;;;;;;;;;;1044758;28;20044;-88
2021/01/19 02:34:38;;;;;;;11.63;4.20;;;;;;;;;;1050480;28;20052;-90
2021/01/19 02:35:13;;;;;;;9.30;4.60;;;;;;;;;;1049760;28;20131;-92
2021/01/19 02:35:49;;;;;;;10.25;4.63;;;;;;;;;;1045151;28;20103;-91
2021/01/19 02:36:30;;;;;;;12.23;5.00;;;;;;;;;;1038470;28;20045;-92
2021/01/19 02:37:06;;;;;;;9.73;4.68;;;;;;;;;;1036971;28;20056;-89
2021/01/19 02:37:44;;;;;;;8.75;4.45;;;;;;;;;;1043977;28;20060;-91
2021/01/19 02:38:24;;;;;;;9.88;4.43;;;;;;;;;;1044853;28;20056;-92
2021/01/19 02:38:59;;;;;;;13.00;4.78;;;;;;;;;;1048179;28;20075;-90
2021/01/19 02:39:45;;;;;;;18.52;4.88;;;;;;;;;;1049575;28;20045;-91
2021/01/19 02:40:17;;;;;;;10.57;4.22;;;;;;;;;;1039561;28;20098;-92
2021/01/19 02:40:53;;;;;;;8.20;4.03;;;;;;;;;;1044136;28;20126;-92
2021/01/19 02:41:26;;;;;;;11.43;3.92;;;;;;;;;;1037439;28;20571;-90
2021/01/19 02:42:01;;;;;;;12.07;3.88;;;;;;;;;;1034422;28;20047;-90
2021/01/19 02:43:14;;;;;;;10.30;4.07;;;;;;;;;;1034713;28;20140;-90
2021/01/19 02:43:56;;;;;;;11.63;4.20;;;;;;;;;;1030751;28;20054;-90
2021/01/19 02:44:33;;;;;;;11.20;4.30;;;;;;;;;;1037313;28;20447;-93
2021/01/19 02:45:06;;;;;;;11.07;4.18;;;;;;;;;;1040709;28;20050;-91
2021/01/19 02:45:38;;;;;;;11.10;4.00;;;;;;;;;;1047827;28;20060;-92
2021/01/19 02:46:09;;;;;;;10.73;4.32;;;;;;;;;;1045017;28;20048;-93
2021/01/19 02:46:40;;;;;;;14.18;4.40;;;;;;;;;;1044687;28;20045;-92
2021/01/19 02:47:13;;;;;;;10.40;5.05;;;;;;;;;;1045069;28;20122;-92
2021/01/19 02:47:44;;;;;;;8.55;3.95;;;;;;;;;;1036858;28;20137;-93
2021/01/19 02:48:16;;;;;;;12.23;4.93;;;;;;;;;;1044910;28;20140;-90
2021/01/19 02:48:47;;;;;;;13.77;4.82;;;;;;;;;;1044883;28;20479;-90
2021/01/19 02:49:19;;;;;;;11.82;4.20;;;;;;;;;;1044801;28;20056;-92
2021/01/19 02:49:50;;;;;;;9.98;3.92;;;;;;;;;;1035477;28;20129;-91
2021/01/19 02:50:21;;;;;;;11.38;4.97;;;;;;;;;;1040589;28;20171;-92
2021/01/19 02:50:53;;;;;;;8.60;4.10;;;;;;;;;;1044893;28;20083;-91
2021/01/19 02:51:24;;;;;;;9.90;4.15;;;;;;;;;;1044830;28;20096;-92
2021/01/19 02:51:57;;;;;;;11.77;3.60;;;;;;;;;;1040564;28;20049;-91
2021/01/19 02:52:29;;;;;;;12.05;4.13;;;;;;;;;;1033094;28;20458;-94
2021/01/19 02:53:00;;;;;;;9.40;4.30;;;;;;;;;;1044823;28;20055;-91
2021/01/19 02:53:31;;;;;;;12.88;4.25;;;;;;;;;;1044711;28;20055;-91
2021/01/19 02:54:02;;;;;;;8.75;4.22;;;;;;;;;;1036586;28;20133;-93
2021/01/19 02:54:33;;;;;;;12.50;4.47;;;;;;;;;;1033794;28;20062;-91
2021/01/19 02:55:07;;;;;;;9.48;4.43;;;;;;;;;;1049131;28;20044;-92
2021/01/19 02:55:41;;;;;;;10.40;4.15;;;;;;;;;;1044979;28;20498;-92
2021/01/19 02:56:24;;;;;;;9.55;3.65;;;;;;;;;;1044607;28;20131;-91
2021/01/19 02:57:04;;;;;;;20.15;6.28;;;;;;;;;;1043337;28;20135;-91
2021/01/19 02:58:01;;;;;;;10.35;4.85;;;;;;;;;;1044803;28;20523;-93
2021/01/19 02:58:43;;;;;;;7.30;3.45;;;;;;;;;;1040786;28;20041;-91
2021/01/19 02:59:27;;;;;;;10.45;4.18;;;;;;;;;;1036704;28;20053;-92
2021/01/19 03:00:11;;;;;;;13.30;4.55;;;;;;;;;;1035353;28;20046;-91
2021/01/19 03:01:06;;;;;;;14.88;4.43;;;;;;;;;;1040808;28;20155;-93
2021/01/19 03:01:45;;;;;;;9.60;3.95;;;;;;;;;;1047303;28;20049;-91
2021/01/19 03:02:20;;;;;;;7.93;4.25;;;;;;;;;;1048582;28;20080;-92
2021/01/19 03:02:52;;;;;;;14.60;5.22;;;;;;;;;;1034961;28;20042;-92
2021/01/19 03:03:24;;;;;;;18.77;4.53;;;;;;;;;;1040876;28;20052;-91
2021/01/19 03:03:55;;;;;;;12.15;3.65;;;;;;;;;;1041166;28;20044;-93
2021/01/19 03:04:29;;;;;;;11.45;4.20;;;;;;;;;;1040677;28;20053;-92
2021/01/19 03:05:01;;;;;;;9.07;4.88;;;;;;;;;;1037065;28;20447;-93
2021/01/19 03:05:32;;;;;;;11.05;4.00;;;;;;;;;;1037449;28;20054;-90
2021/01/19 03:06:07;;;;;;;11.68;3.95;;;;;;;;;;1042495;28;20134;-93
2021/01/19 03:06:42;;;;;;;8.95;4.78;;;;;;;;;;1046221;28;20057;-92
2021/01/19 03:07:14;;;;;;;11.52;4.50;;;;;;;;;;1043388;28;20721;-91
2021/01/19 03:07:45;;;;;;;9.45;4.55;;;;;;;;;;1042337;28;20046;-92
2021/01/19 03:08:17;;;;;;;16.50;6.53;;;;;;;;;;1036601;28;20050;-93
2021/01/19 03:08:50;;;;;;;8.73;4.30;;;;;;;;;;1038857;28;20045;-93
2021/01/19 03:09:22;;;;;;;13.93;4.68;;;;;;;;;;1028692;28;20074;-90
2021/01/19 03:10:00;;;;;;;9.25;4.00;;;;;;;;;;1036601;28;20058;-92
2021/01/19 03:10:33;;;;;;;12.23;4.03;;;;;;;;;;1038911;28;20077;-92
2021/01/19 03:11:05;;;;;;;13.57;4.57;;;;;;;;;;1040647;28;20057;-93
2021/01/19 03:11:37;;;;;;;14.38;4.28;;;;;;;;;;1036542;28;20054;-90
2021/01/19 03:12:09;;;;;;;6.45;3.95;;;;;;;;;;1040705;28;20544;-92
2021/01/19 03:12:42;;;;;;;12.60;4.40;;;;;;;;;;1049376;28;20131;-92
2021/01/19 03:13:13;;;;;;;12.90;4.43;;;;;;;;;;1044897;28;20547;-92
2021/01/19 03:13:46;;;;;;;11.55;4.25;;;;;;;;;;1037032;28;20137;-92
2021/01/19 03:14:17;;;;;;;11.13;4.05;;;;;;;;;;1036674;28;20053;-92
2021/01/19 03:14:48;;;;;;;9.35;3.78;;;;;;;;;;1040666;28;20061;-93
2021/01/19 03:15:19;;;;;;;19.48;5.35;;;;;;;;;;1045201;28;20053;-92
2021/01/19 03:16:10;;;;;;;8.13;4.50;;;;;;;;;;1044881;28;20537;-92
2021/01/19 03:16:45;;;;;;;13.90;5.10;;;;;;;;;;1044859;28;20056;-93
2021/01/19 03:17:16;;;;;;;10.57;4.25;;;;;;;;;;1033899;28;20526;-92
2021/01/19 03:17:47;;;;;;;8.35;4.57;;;;;;;;;;1040861;28;20394;-90
2021/01/19 03:18:18;;;;;;;15.50;5.15;;;;;;;;;;1036663;28;20052;-88
2021/01/19 03:18:51;;;;;;;11.30;4.53;;;;;;;;;;1036930;28;20081;-91
2021/01/19 03:19:23;;;;;;;12.32;5.70;;;;;;;;;;1040591;28;20143;-90
2021/01/19 03:19:55;;;;;;;8.93;4.40;;;;;;;;;;1040498;28;20049;-90
2021/01/19 03:20:27;;;;;;;11.70;5.53;;;;;;;;;;1042506;28;20045;-92
2021/01/19 03:20:58;;;;;;;17.02;5.18;;;;;;;;;;1036536;28;20049;-91
2021/01/19 03:21:30;;;;;;;12.35;5.18;;;;;;;;;;1032294;28;20046;-91